createdAt,value
2017-10-19T00:00:58.482Z,16.57
2017-10-19T00:02:08.958Z,16.59
2017-10-19T00:03:19.353Z,16.59
2017-10-19T00:04:29.435Z,16.59
2017-10-19T00:05:39.830Z,16.62
2017-10-19T00:06:49.911Z,16.54
2017-10-19T00:08:00.326Z,16.57
2017-10-19T00:09:10.774Z,16.55
2017-10-19T00:10:21.194Z,16.58
2017-10-19T00:11:31.599Z,16.59
2017-10-19T00:12:41.660Z,16.58
2017-10-19T00:13:52.110Z,16.57
2017-10-19T00:15:02.177Z,16.57
2017-10-19T00:16:11.943Z,16.49
2017-10-19T00:17:22.030Z,16.58
2017-10-19T00:18:31.773Z,16.65
2017-10-19T00:19:42.182Z,16.62
2017-10-19T00:20:52.578Z,16.54
2017-10-19T00:22:02.317Z,16.47
2017-10-19T00:23:12.414Z,16.51
2017-10-19T00:24:22.478Z,16.57
2017-10-19T00:25:32.887Z,16.51
2017-10-19T00:26:43.280Z,16.47
2017-10-19T00:27:53.693Z,16.51
2017-10-19T00:29:04.085Z,16.54
2017-10-19T00:30:14.475Z,16.59
2017-10-19T00:31:24.272Z,16.51
2017-10-19T00:32:34.344Z,16.62
2017-10-19T00:33:44.418Z,16.59
2017-10-19T00:34:54.817Z,16.57
2017-10-19T00:36:05.229Z,16.57
2017-10-19T00:37:15.350Z,16.52
2017-10-19T00:38:27.103Z,16.55
2017-10-19T00:39:37.446Z,16.52
2017-10-19T00:40:47.839Z,16.65
2017-10-19T00:41:58.235Z,16.55
2017-10-19T00:43:08.642Z,16.58
2017-10-19T00:44:19.050Z,16.55
2017-10-19T00:45:28.811Z,16.4
2017-10-19T00:46:39.235Z,16.51
2017-10-19T00:47:49.642Z,16.44
2017-10-19T00:48:59.758Z,16.42
2017-10-19T00:50:09.813Z,16.48
2017-10-19T00:51:19.891Z,16.42
2017-10-19T00:52:29.974Z,16.42
2017-10-19T00:53:40.068Z,16.45
2017-10-19T00:54:50.524Z,16.45
2017-10-19T00:56:00.926Z,16.4
2017-10-19T00:57:10.997Z,16.44
2017-10-19T00:58:21.072Z,16.36
2017-10-19T00:59:31.491Z,16.4
2017-10-19T01:00:41.962Z,16.42
2017-10-19T01:01:52.374Z,16.39
2017-10-19T01:03:02.829Z,16.39
2017-10-19T01:04:12.920Z,16.34
2017-10-19T01:05:23.318Z,16.45
2017-10-19T01:06:33.119Z,16.51
2017-10-19T01:07:43.567Z,16.45
2017-10-19T01:08:53.970Z,16.42
2017-10-19T01:10:04.035Z,16.47
2017-10-19T01:11:14.447Z,16.42
2017-10-19T01:12:24.848Z,16.37
2017-10-19T01:13:35.249Z,16.45
2017-10-19T01:14:44.988Z,16.37
2017-10-19T01:15:55.410Z,16.34
2017-10-19T01:17:05.480Z,16.3
2017-10-19T01:18:15.913Z,16.44
2017-10-19T01:19:25.971Z,16.33
2017-10-19T01:20:36.376Z,16.36
2017-10-19T01:21:46.449Z,16.3
2017-10-19T01:22:56.859Z,16.29
2017-10-19T01:24:06.702Z,16.27
2017-10-19T01:25:17.091Z,16.26
2017-10-19T01:26:27.485Z,16.27
2017-10-19T01:27:36.903Z,16.21
2017-10-19T01:28:47.303Z,16.29
2017-10-19T01:29:57.684Z,16.26
2017-10-19T01:31:07.762Z,16.3
2017-10-19T01:32:18.160Z,16.27
2017-10-19T01:33:28.238Z,16.3
2017-10-19T01:34:38.626Z,16.26
2017-10-19T01:35:49.068Z,16.25
2017-10-19T01:36:59.456Z,16.25
2017-10-19T01:38:09.552Z,16.11
2017-10-19T01:39:19.957Z,16.13
2017-10-19T01:40:30.361Z,16.14
2017-10-19T01:41:40.812Z,16.22
2017-10-19T01:42:50.901Z,16.21
2017-10-19T01:44:01.286Z,16.25
2017-10-19T01:45:11.679Z,16.21
2017-10-19T01:46:21.759Z,16.21
2017-10-19T01:47:32.170Z,16.17
2017-10-19T01:48:42.580Z,16.22
2017-10-19T01:49:52.643Z,16.11
2017-10-19T01:51:02.719Z,16.25
2017-10-19T01:52:12.792Z,16.21
2017-10-19T01:53:23.279Z,16.17
2017-10-19T01:54:33.355Z,16.17
2017-10-19T01:55:43.751Z,16.13
2017-10-19T01:56:54.154Z,16.04
2017-10-19T01:58:04.567Z,15.99
2017-10-19T01:59:15.040Z,15.98
2017-10-19T02:00:26.282Z,15.93
2017-10-19T02:01:36.364Z,16.08
2017-10-19T02:02:46.748Z,15.99
2017-10-19T02:03:56.807Z,15.98
2017-10-19T02:05:07.228Z,15.96
2017-10-19T02:06:16.967Z,15.96
2017-10-19T02:07:27.036Z,15.88
2017-10-19T02:08:37.084Z,15.86
2017-10-19T02:09:47.157Z,15.88
2017-10-19T02:10:57.557Z,15.83
2017-10-19T02:12:07.968Z,15.81
2017-10-19T02:13:18.377Z,15.78
2017-10-19T02:14:28.121Z,15.78
2017-10-19T02:15:38.198Z,15.83
2017-10-19T02:16:48.271Z,15.78
2017-10-19T02:17:58.673Z,15.77
2017-10-19T02:19:08.761Z,15.71
2017-10-19T02:20:19.163Z,15.71
2017-10-19T02:21:29.567Z,15.74
2017-10-19T02:22:40.024Z,15.74
2017-10-19T02:23:50.431Z,15.8
2017-10-19T02:25:00.810Z,15.88
2017-10-19T02:26:11.206Z,15.89
2017-10-19T02:27:21.597Z,15.86
2017-10-19T02:28:31.668Z,15.86
2017-10-19T02:29:42.062Z,15.83
2017-10-19T02:30:52.113Z,15.84
2017-10-19T02:32:02.541Z,15.84
2017-10-19T02:33:12.956Z,15.92
2017-10-19T02:34:23.369Z,15.98
2017-10-19T02:35:33.445Z,16
2017-10-19T02:36:43.893Z,15.95
2017-10-19T02:37:54.299Z,15.95
2017-10-19T02:39:04.709Z,15.92
2017-10-19T02:40:15.110Z,15.99
2017-10-19T02:41:25.526Z,15.98
2017-10-19T02:42:35.949Z,15.96
2017-10-19T02:43:46.354Z,16.07
2017-10-19T02:44:56.753Z,16.08
2017-10-19T02:46:07.223Z,16.04
2017-10-19T02:47:17.288Z,15.95
2017-10-19T02:48:27.698Z,16
2017-10-19T02:49:37.444Z,16
2017-10-19T02:50:47.832Z,15.99
2017-10-19T02:51:58.235Z,15.98
2017-10-19T02:53:08.314Z,16
2017-10-19T02:54:18.719Z,15.92
2017-10-19T02:55:29.139Z,15.95
2017-10-19T02:56:39.541Z,16.06
2017-10-19T02:57:50.827Z,15.96
2017-10-19T02:59:00.889Z,15.92
2017-10-19T03:00:10.957Z,15.95
2017-10-19T03:01:21.085Z,16.02
2017-10-19T03:33:51.331Z,13.53
2017-10-19T03:35:01.719Z,13.55
2017-10-19T03:36:12.108Z,13.53
2017-10-19T03:37:22.514Z,13.62
2017-10-19T03:38:32.914Z,13.63
2017-10-19T03:39:43.370Z,13.66
2017-10-19T03:40:53.437Z,13.76
2017-10-19T03:42:03.838Z,13.93
2017-10-19T03:43:13.588Z,14.08
2017-10-19T03:44:24.010Z,14.19
2017-10-19T03:45:34.461Z,14.3
2017-10-19T03:46:44.869Z,14.49
2017-10-19T03:47:54.933Z,14.61
2017-10-19T03:49:05.004Z,14.64
2017-10-19T03:50:14.753Z,14.8
2017-10-19T03:51:25.197Z,14.86
2017-10-19T03:52:35.615Z,15.13
2017-10-19T03:53:46.018Z,15.16
2017-10-19T03:54:56.418Z,15.3
2017-10-19T03:56:06.493Z,15.35
2017-10-19T03:57:16.897Z,15.44
2017-10-19T03:58:27.294Z,15.55
2017-10-19T03:59:37.694Z,15.58
2017-10-19T04:00:48.093Z,15.59
2017-10-19T04:01:58.491Z,15.67
2017-10-19T04:03:08.942Z,15.74
2017-10-19T04:04:19.353Z,15.84
2017-10-19T04:05:29.756Z,15.84
2017-10-19T04:06:39.823Z,15.93
2017-10-19T04:07:50.227Z,15.92
2017-10-19T04:09:00.341Z,15.96
2017-10-19T04:10:10.422Z,15.95
2017-10-19T04:11:20.493Z,16
2017-10-19T04:12:30.555Z,16.08
2017-10-19T04:13:40.637Z,16.1
2017-10-19T04:14:50.759Z,16.13
2017-10-19T04:16:01.148Z,16.18
2017-10-19T04:17:11.557Z,16.14
2017-10-19T04:18:21.953Z,16.16
2017-10-19T04:19:32.345Z,16.11
2017-10-19T04:20:42.751Z,16.11
2017-10-19T04:21:53.154Z,16.14
2017-10-19T04:23:03.560Z,16.17
2017-10-19T04:24:13.954Z,16.13
2017-10-19T04:25:24.353Z,16.14
2017-10-19T04:26:34.820Z,16.13
2017-10-19T04:27:45.477Z,16.16
2017-10-19T04:28:55.556Z,16.25
2017-10-19T04:30:05.962Z,16.26
2017-10-19T04:31:16.049Z,16.26
2017-10-19T04:32:26.435Z,16.29
2017-10-19T04:33:36.507Z,16.29
2017-10-19T04:34:46.892Z,16.26
2017-10-19T04:35:57.314Z,16.39
2017-10-19T04:37:07.397Z,16.21
2017-10-19T04:38:17.846Z,16.25
2017-10-19T04:39:28.244Z,16.34
2017-10-19T04:40:38.647Z,16.29
2017-10-19T04:41:48.705Z,16.33
2017-10-19T04:42:59.125Z,16.36
2017-10-19T04:44:09.262Z,16.27
2017-10-19T04:45:19.331Z,16.29
2017-10-19T04:46:29.726Z,16.18
2017-10-19T04:47:40.114Z,16.3
2017-10-19T04:48:50.183Z,16.3
2017-10-19T04:50:00.633Z,16.22
2017-10-19T04:51:11.043Z,16.27
2017-10-19T04:52:21.462Z,16.22
2017-10-19T04:53:31.545Z,16.32
2017-10-19T04:54:41.949Z,16.26
2017-10-19T04:55:52.415Z,16.27
2017-10-19T04:57:02.812Z,16.29
2017-10-19T04:58:13.240Z,16.21
2017-10-19T04:59:23.657Z,16.33
2017-10-19T05:00:34.079Z,16.33
2017-10-19T05:01:44.519Z,16.34
2017-10-19T05:02:54.268Z,16.34
2017-10-19T05:04:04.664Z,16.39
2017-10-19T05:05:14.405Z,16.4
2017-10-19T05:06:24.465Z,16.42
2017-10-19T05:07:34.915Z,16.42
2017-10-19T05:08:45.734Z,16.4
2017-10-19T05:09:56.146Z,16.36
2017-10-19T05:11:06.543Z,16.37
2017-10-19T05:12:16.615Z,16.4
2017-10-19T05:13:27.062Z,16.36
2017-10-19T05:14:37.125Z,16.39
2017-10-19T05:15:47.538Z,16.42
2017-10-19T05:16:57.934Z,16.37
2017-10-19T05:18:07.695Z,16.39
2017-10-19T05:19:18.102Z,16.45
2017-10-19T05:20:28.503Z,16.48
2017-10-19T05:21:38.900Z,16.45
2017-10-19T05:22:49.309Z,16.48
2017-10-19T05:23:59.408Z,16.51
2017-10-19T05:25:09.829Z,16.49
2017-10-19T05:26:20.222Z,16.45
2017-10-19T05:27:30.629Z,16.42
2017-10-19T05:28:40.697Z,16.42
2017-10-19T05:29:51.100Z,16.44
2017-10-19T05:31:01.218Z,16.37
2017-10-19T05:32:11.620Z,16.42
2017-10-19T05:33:22.020Z,16.49
2017-10-19T05:34:32.423Z,16.44
2017-10-19T05:35:42.506Z,16.4
2017-10-19T05:36:52.902Z,16.59
2017-10-19T05:38:03.325Z,16.59
2017-10-19T05:39:13.397Z,16.59
2017-10-19T05:40:23.468Z,16.51
2017-10-19T05:41:33.876Z,16.58
2017-10-19T05:42:44.336Z,16.57
2017-10-19T05:43:54.427Z,16.37
2017-10-19T05:45:04.819Z,16.47
2017-10-19T05:46:15.208Z,16.44
2017-10-19T05:47:25.593Z,16.44
2017-10-19T05:48:36.055Z,16.49
2017-10-19T05:49:46.443Z,16.49
2017-10-19T05:50:56.879Z,16.44
2017-10-19T05:52:08.233Z,16.42
2017-10-19T05:53:18.660Z,16.45
2017-10-19T05:54:28.129Z,16.48
2017-10-19T05:55:38.535Z,16.55
2017-10-19T05:56:48.269Z,16.44
2017-10-19T05:57:58.680Z,16.57
2017-10-19T05:59:08.758Z,16.52
2017-10-19T06:00:18.870Z,16.52
2017-10-19T06:01:29.269Z,16.59
2017-10-19T06:02:39.683Z,16.63
2017-10-19T06:03:50.084Z,16.69
2017-10-19T06:05:00.166Z,16.69
2017-10-19T06:06:10.672Z,16.82
2017-10-19T06:07:20.753Z,16.67
2017-10-19T06:08:30.840Z,16.72
2017-10-19T06:09:41.229Z,16.67
2017-10-19T06:10:51.624Z,16.7
2017-10-19T06:12:01.692Z,16.81
2017-10-19T06:13:12.095Z,16.74
2017-10-19T06:14:22.505Z,16.77
2017-10-19T06:15:32.570Z,16.84
2017-10-19T06:16:41.989Z,16.82
2017-10-19T06:17:52.435Z,16.94
2017-10-19T06:19:02.851Z,16.95
2017-10-19T06:20:13.251Z,16.99
2017-10-19T06:21:23.661Z,17.02
2017-10-19T06:22:34.061Z,17.05
2017-10-19T06:23:44.518Z,17.1
2017-10-19T06:24:54.911Z,17.13
2017-10-19T06:26:05.314Z,17.18
2017-10-19T06:27:15.736Z,17.1
2017-10-19T06:28:26.138Z,17.13
2017-10-19T06:29:36.532Z,17.18
2017-10-19T06:30:46.594Z,17.25
2017-10-19T06:31:57.015Z,17.27
2017-10-19T06:33:07.428Z,17.31
2017-10-19T06:34:17.815Z,17.31
2017-10-19T06:35:28.274Z,17.35
2017-10-19T06:36:38.681Z,17.39
2017-10-19T06:37:49.076Z,17.4
2017-10-19T06:38:59.469Z,17.47
2017-10-19T06:40:09.870Z,17.45
2017-10-19T06:41:20.330Z,17.49
2017-10-19T06:42:29.745Z,17.52
2017-10-19T06:43:40.148Z,17.52
2017-10-19T06:44:50.219Z,17.6
2017-10-19T06:46:00.309Z,17.55
2017-10-19T06:47:10.429Z,17.6
2017-10-19T06:48:20.839Z,17.69
2017-10-19T06:49:30.902Z,17.66
2017-10-19T06:50:41.301Z,17.62
2017-10-19T06:51:51.705Z,17.71
2017-10-19T06:53:02.962Z,17.74
2017-10-19T06:54:13.346Z,17.79
2017-10-19T06:55:23.432Z,17.79
2017-10-19T06:56:33.821Z,17.9
2017-10-19T06:57:44.336Z,17.99
2017-10-19T06:58:54.447Z,18.03
2017-10-19T07:00:05.004Z,18.06
2017-10-19T07:01:16.017Z,18.1
2017-10-19T07:02:27.006Z,18.05
2017-10-19T07:03:38.019Z,18.03
2017-10-19T07:04:49.039Z,18.08
2017-10-19T07:06:00.048Z,18.17
2017-10-19T07:07:11.008Z,18.16
2017-10-19T07:08:21.659Z,18.26
2017-10-19T07:09:32.699Z,18.31
2017-10-19T07:10:43.748Z,18.26
2017-10-19T07:11:54.375Z,18.31
2017-10-19T07:13:05.389Z,18.31
2017-10-19T07:14:16.603Z,18.36
2017-10-19T07:15:28.062Z,18.42
2017-10-19T07:16:41.796Z,18.5
2017-10-19T07:17:54.722Z,18.63
2017-10-19T07:19:08.414Z,18.59
2017-10-19T07:20:20.878Z,18.68
2017-10-19T07:21:33.942Z,18.75
2017-10-19T07:22:45.879Z,18.89
2017-10-19T07:23:58.590Z,18.89
2017-10-19T07:25:11.989Z,18.87
2017-10-19T07:26:25.415Z,19.05
2017-10-19T07:27:39.506Z,18.99
2017-10-19T07:28:54.139Z,19.05
2017-10-19T07:30:07.293Z,19.09
2017-10-19T07:31:21.697Z,19.1
2017-10-19T07:32:38.736Z,19.09
2017-10-19T07:33:53.683Z,19.05
2017-10-19T07:35:10.514Z,19
2017-10-19T07:36:26.499Z,18.96
2017-10-19T07:37:40.705Z,19
2017-10-19T07:38:55.614Z,19.09
2017-10-19T07:40:10.876Z,19.17
2017-10-19T07:41:25.644Z,19.07
2017-10-19T07:42:39.012Z,19.23
2017-10-19T07:43:51.883Z,19.17
2017-10-19T07:45:04.988Z,19.24
2017-10-19T07:46:18.789Z,19.24
2017-10-19T07:47:35.235Z,19.34
2017-10-19T07:48:50.839Z,19.24
2017-10-19T07:50:05.199Z,19.24
2017-10-19T07:51:21.538Z,19.2
2017-10-19T07:52:39.228Z,19.25
2017-10-19T07:53:56.151Z,19.23
2017-10-19T07:55:12.840Z,19.25
2017-10-19T07:56:27.307Z,19.4
2017-10-19T07:57:39.356Z,19.46
2017-10-19T07:58:52.054Z,19.46
2017-10-19T08:00:05.370Z,19.52
2017-10-19T08:01:17.653Z,19.47
2017-10-19T08:02:30.835Z,19.68
2017-10-19T08:03:46.397Z,19.6
2017-10-19T08:05:02.186Z,19.63
2017-10-19T08:06:17.023Z,19.68
2017-10-19T08:07:31.408Z,19.8
2017-10-19T08:08:46.245Z,19.82
2017-10-19T08:10:01.304Z,19.97
2017-10-19T08:11:14.752Z,20.01
2017-10-19T08:12:29.879Z,20.15
2017-10-19T08:13:42.281Z,20.19
2017-10-19T08:14:55.781Z,20.29
2017-10-19T08:16:07.351Z,20.35
2017-10-19T08:17:18.677Z,20.38
2017-10-19T08:18:32.177Z,20.51
2017-10-19T08:19:45.752Z,20.48
2017-10-19T08:20:59.738Z,20.48
2017-10-19T08:22:14.536Z,20.46
2017-10-19T08:23:29.218Z,20.48
2017-10-19T08:24:41.724Z,20.46
2017-10-19T08:25:53.876Z,20.46
2017-10-19T08:27:06.292Z,20.29
2017-10-19T08:28:20.521Z,20.41
2017-10-19T08:29:33.355Z,20.37
2017-10-19T08:30:46.257Z,20.38
2017-10-19T08:31:56.705Z,20.35
2017-10-19T08:33:07.130Z,20.44
2017-10-19T08:34:17.597Z,20.37
2017-10-19T08:35:27.679Z,20.44
2017-10-19T08:36:37.768Z,20.51
2017-10-19T08:37:48.195Z,20.53
2017-10-19T08:38:58.664Z,20.49
2017-10-19T08:40:09.065Z,20.4
2017-10-19T08:41:19.462Z,20.35
2017-10-19T08:42:29.251Z,20.29
2017-10-19T08:43:39.654Z,20.27
2017-10-19T08:44:50.113Z,20.25
2017-10-19T08:46:00.243Z,20.27
2017-10-19T08:47:10.675Z,20.29
2017-10-19T08:48:20.788Z,20.23
2017-10-19T08:49:31.212Z,20.26
2017-10-19T08:50:41.634Z,20.23
2017-10-19T08:51:52.039Z,20.22
2017-10-19T08:53:02.150Z,20.27
2017-10-19T08:54:12.251Z,20.41
2017-10-19T08:55:22.320Z,20.4
2017-10-19T08:56:33.648Z,20.49
2017-10-19T08:57:43.745Z,20.42
2017-10-19T08:58:54.150Z,20.49
2017-10-19T09:00:04.545Z,20.48
2017-10-19T09:01:15.089Z,20.35
2017-10-19T09:02:25.176Z,20.37
2017-10-19T09:03:35.291Z,20.27
2017-10-19T09:04:45.700Z,20.22
2017-10-19T09:05:56.103Z,20.2
2017-10-19T09:07:06.188Z,20.05
2017-10-19T09:08:16.588Z,20.08
2017-10-19T09:09:27.052Z,20.12
2017-10-19T09:10:37.494Z,20.1
2017-10-19T09:11:47.908Z,20.1
2017-10-19T09:12:58.308Z,20.11
2017-10-19T09:14:08.376Z,20.18
2017-10-19T09:15:18.452Z,20.22
2017-10-19T09:16:28.884Z,20.29
2017-10-19T09:17:38.956Z,20.38
2017-10-19T09:18:49.358Z,20.4
2017-10-19T09:19:59.766Z,20.44
2017-10-19T09:21:09.851Z,20.46
2017-10-19T09:22:21.518Z,20.44
2017-10-19T09:23:31.935Z,20.46
2017-10-19T09:24:42.361Z,20.48
2017-10-19T09:25:52.438Z,20.42
2017-10-19T09:27:02.586Z,20.48
2017-10-19T09:28:12.993Z,20.41
2017-10-19T09:29:22.734Z,20.42
2017-10-19T09:30:33.153Z,20.46
2017-10-19T09:31:43.233Z,20.42
2017-10-19T09:32:54.024Z,20.44
2017-10-19T09:34:04.878Z,20.37
2017-10-19T09:35:15.537Z,20.42
2017-10-19T09:36:25.957Z,20.34
2017-10-19T09:37:36.383Z,20.38
2017-10-19T09:38:46.901Z,20.4
2017-10-19T09:39:57.428Z,20.27
2017-10-19T09:41:07.961Z,20.37
2017-10-19T09:42:18.478Z,20.44
2017-10-19T09:43:28.931Z,20.49
2017-10-19T09:44:39.413Z,20.46
2017-10-19T09:45:49.872Z,20.44
2017-10-19T09:47:00.318Z,20.42
2017-10-19T09:48:10.758Z,20.53
2017-10-19T09:49:21.183Z,20.53
2017-10-19T09:50:31.666Z,20.6
2017-10-19T09:51:41.847Z,20.71
2017-10-19T09:52:52.298Z,20.64
2017-10-19T09:54:02.746Z,20.68
2017-10-19T09:55:13.156Z,20.72
2017-10-19T09:56:23.615Z,20.67
2017-10-19T09:57:34.021Z,20.67
2017-10-19T09:58:44.108Z,20.75
2017-10-19T09:59:54.550Z,20.74
2017-10-19T10:01:04.971Z,20.74
2017-10-19T10:02:15.434Z,20.71
2017-10-19T10:03:25.520Z,20.76
2017-10-19T10:04:35.987Z,20.75
2017-10-19T10:05:46.445Z,20.72
2017-10-19T10:06:57.598Z,20.68
2017-10-19T10:08:08.035Z,20.75
2017-10-19T10:09:18.133Z,20.79
2017-10-19T10:10:28.574Z,20.79
2017-10-19T10:11:38.995Z,20.98
2017-10-19T10:12:49.404Z,21.11
2017-10-19T10:13:59.880Z,21.12
2017-10-19T10:15:10.321Z,21.18
2017-10-19T10:16:21.037Z,21.21
2017-10-19T10:17:31.161Z,21.28
2017-10-19T10:18:40.921Z,21.3
2017-10-19T10:19:51.403Z,21.4
2017-10-19T10:21:01.813Z,21.49
2017-10-19T10:22:12.244Z,21.58
2017-10-19T10:23:22.651Z,21.74
2017-10-19T10:24:33.090Z,21.62
2017-10-19T10:25:43.569Z,21.64
2017-10-19T10:26:54.003Z,21.51
2017-10-19T10:28:04.090Z,21.49
2017-10-19T10:29:14.196Z,21.36
2017-10-19T10:30:24.639Z,21.28
2017-10-19T10:31:35.113Z,21.21
2017-10-19T10:32:45.526Z,21.36
2017-10-19T10:33:55.945Z,21.49
2017-10-19T10:35:06.362Z,21.51
2017-10-19T10:36:16.783Z,21.56
2017-10-19T10:37:27.245Z,21.64
2017-10-19T10:38:37.674Z,21.62
2017-10-19T10:39:48.124Z,21.62
2017-10-19T10:40:57.906Z,21.59
2017-10-19T10:42:08.326Z,21.52
2017-10-19T10:43:18.480Z,21.52
2017-10-19T10:44:28.920Z,21.61
2017-10-19T10:45:39.074Z,21.7
2017-10-19T10:46:49.149Z,21.68
2017-10-19T10:47:59.257Z,21.8
2017-10-19T10:49:09.358Z,21.96
2017-10-19T10:50:19.784Z,21.99
2017-10-19T10:51:30.199Z,21.92
2017-10-19T10:52:40.609Z,21.86
2017-10-19T10:53:51.022Z,21.86
2017-10-19T10:55:01.440Z,21.74
2017-10-19T10:56:11.863Z,21.76
2017-10-19T10:57:21.974Z,21.77
2017-10-19T10:58:32.075Z,21.89
2017-10-19T10:59:42.493Z,21.83
2017-10-19T11:00:52.976Z,21.85
2017-10-19T11:02:03.394Z,21.94
2017-10-19T11:03:13.805Z,22
2017-10-19T11:04:23.873Z,21.93
2017-10-19T11:05:34.291Z,22
2017-10-19T11:06:44.727Z,21.94
2017-10-19T11:07:55.118Z,21.97
2017-10-19T11:09:05.194Z,21.94
2017-10-19T11:10:15.586Z,21.93
2017-10-19T11:11:26.040Z,21.94
2017-10-19T11:12:36.509Z,21.99
2017-10-19T11:13:46.937Z,21.97
2017-10-19T11:14:57.390Z,22.04
2017-10-19T11:16:07.817Z,21.99
2017-10-19T11:17:18.236Z,22.04
2017-10-19T11:18:28.389Z,21.97
2017-10-19T11:19:38.506Z,21.93
2017-10-19T11:20:48.923Z,21.94
2017-10-19T11:21:59.313Z,21.97
2017-10-19T11:23:09.409Z,21.97
2017-10-19T11:24:19.879Z,21.99
2017-10-19T11:25:29.990Z,22
2017-10-19T11:26:39.762Z,22.02
2017-10-19T11:27:50.193Z,21.99
2017-10-19T11:29:00.615Z,21.97
2017-10-19T11:30:10.716Z,21.93
2017-10-19T11:31:21.137Z,21.9
2017-10-19T11:32:30.883Z,21.93
2017-10-19T11:33:41.309Z,21.82
2017-10-19T11:34:51.749Z,21.9
2017-10-19T11:36:01.898Z,21.83
2017-10-19T11:37:11.980Z,21.76
2017-10-19T11:38:22.385Z,21.59
2017-10-19T11:39:32.789Z,21.56
2017-10-19T11:40:42.867Z,21.59
2017-10-19T11:41:53.349Z,21.55
2017-10-19T11:43:04.141Z,21.34
2017-10-19T11:44:14.566Z,21.23
2017-10-19T11:45:24.995Z,21
2017-10-19T11:46:34.401Z,20.93
2017-10-19T11:47:44.796Z,20.82
2017-10-19T11:48:54.205Z,20.68
2017-10-19T11:50:04.599Z,20.54
2017-10-19T11:51:14.688Z,20.44
2017-10-19T11:52:24.771Z,20.25
2017-10-19T11:53:35.224Z,20.11
2017-10-19T11:54:45.642Z,20.04
2017-10-19T11:55:56.082Z,19.92
2017-10-19T11:57:06.500Z,19.8
2017-10-19T11:58:16.902Z,19.75
2017-10-19T11:59:27.004Z,19.75
2017-10-19T12:00:37.437Z,19.8
2017-10-19T12:01:47.853Z,19.86
2017-10-19T12:02:58.275Z,19.75
2017-10-19T12:04:08.752Z,19.67
2017-10-19T12:05:19.218Z,19.79
2017-10-19T12:06:29.632Z,20
2017-10-19T12:07:39.708Z,20.26
2017-10-19T12:08:50.135Z,20.51
2017-10-19T12:10:00.545Z,20.71
2017-10-19T12:11:11.011Z,20.88
2017-10-19T12:12:21.437Z,21.13
2017-10-19T12:13:31.852Z,21.22
2017-10-19T12:14:41.925Z,21.16
2017-10-19T12:15:52.351Z,21.28
2017-10-19T12:17:02.804Z,21.34
2017-10-19T12:18:13.240Z,21.45
2017-10-19T12:19:23.357Z,21.55
2017-10-19T12:20:33.448Z,21.56
2017-10-19T12:21:44.971Z,21.58
2017-10-19T12:22:56.347Z,21.59
2017-10-19T12:24:06.763Z,21.56
2017-10-19T12:25:17.178Z,21.58
2017-10-19T12:26:27.601Z,21.67
2017-10-19T12:27:38.647Z,21.61
2017-10-19T12:28:50.138Z,21.62
2017-10-19T12:30:01.943Z,21.64
2017-10-19T12:31:13.518Z,21.74
2017-10-19T12:32:25.618Z,21.68
2017-10-19T12:33:38.200Z,21.67
2017-10-19T12:34:49.795Z,21.7
2017-10-19T12:36:00.247Z,21.7
2017-10-19T12:37:13.546Z,21.71
2017-10-19T12:38:23.756Z,21.56
2017-10-19T12:39:34.232Z,21.59
2017-10-19T12:40:51.322Z,21.62
2017-10-19T12:42:04.213Z,21.62
2017-10-19T12:43:14.622Z,21.62
2017-10-19T12:44:25.057Z,21.61
2017-10-19T12:45:35.600Z,21.52
2017-10-19T12:46:46.065Z,21.53
2017-10-19T12:47:56.516Z,21.53
2017-10-19T12:49:06.952Z,21.55
2017-10-19T12:50:17.147Z,21.55
2017-10-19T12:51:27.380Z,21.61
2017-10-19T12:52:37.915Z,21.59
2017-10-19T12:53:48.376Z,21.62
2017-10-19T12:54:59.189Z,21.56
2017-10-19T12:56:10.266Z,21.61
2017-10-19T12:57:20.688Z,21.67
2017-10-19T12:58:31.097Z,21.59
2017-10-19T12:59:41.523Z,21.55
2017-10-19T13:00:51.613Z,21.68
2017-10-19T13:02:02.682Z,21.59
2017-10-19T13:03:13.113Z,21.61
2017-10-19T13:04:23.196Z,21.56
2017-10-19T13:05:33.610Z,21.64
2017-10-19T13:06:44.040Z,21.64
2017-10-19T13:07:54.495Z,21.67
2017-10-19T13:09:04.926Z,21.7
2017-10-19T13:10:14.656Z,21.62
2017-10-19T13:11:25.087Z,21.55
2017-10-19T13:12:35.186Z,21.62
2017-10-19T13:13:45.582Z,21.66
2017-10-19T13:14:55.698Z,21.61
2017-10-19T13:16:06.121Z,21.62
2017-10-19T13:17:16.230Z,21.61
2017-10-19T13:18:26.691Z,21.71
2017-10-19T13:19:36.842Z,21.74
2017-10-19T13:20:47.266Z,21.7
2017-10-19T13:21:57.695Z,21.64
2017-10-19T13:23:07.809Z,21.56
2017-10-19T13:24:18.215Z,21.55
2017-10-19T13:25:28.679Z,21.51
2017-10-19T13:26:38.757Z,21.58
2017-10-19T13:27:48.843Z,21.55
2017-10-19T13:28:59.275Z,21.58
2017-10-19T13:30:09.355Z,21.53
2017-10-19T13:31:19.850Z,21.58
2017-10-19T13:32:29.941Z,21.53
2017-10-19T13:33:40.361Z,21.48
2017-10-19T13:34:51.276Z,21.49
2017-10-19T13:36:01.704Z,21.49
2017-10-19T13:37:12.125Z,21.45
2017-10-19T13:38:22.553Z,21.4
2017-10-19T13:39:32.640Z,21.33
2017-10-19T13:40:43.048Z,21.22
2017-10-19T13:41:53.171Z,21.36
2017-10-19T13:43:03.626Z,21.19
2017-10-19T13:44:14.067Z,21.27
2017-10-19T13:45:24.462Z,21.22
2017-10-19T13:46:34.550Z,21.28
2017-10-19T13:47:44.957Z,21.27
2017-10-19T13:48:55.523Z,21.25
2017-10-19T13:50:05.934Z,21.21
2017-10-19T13:51:16.016Z,21.31
2017-10-19T13:52:26.430Z,21.3
2017-10-19T13:53:36.837Z,21.22
2017-10-19T13:54:47.304Z,21.27
2017-10-19T13:55:58.826Z,21.27
2017-10-19T13:57:08.933Z,21.18
2017-10-19T13:58:19.344Z,21.15
2017-10-19T13:59:30.377Z,21.21
2017-10-19T14:00:40.802Z,21.11
2017-10-19T14:01:51.220Z,21.13
2017-10-19T14:03:01.647Z,20.98
2017-10-19T14:04:11.729Z,20.98
2017-10-19T14:05:22.132Z,20.98
2017-10-19T14:06:32.218Z,20.88
2017-10-19T14:07:42.279Z,20.85
2017-10-19T14:08:52.370Z,20.79
2017-10-19T14:10:02.791Z,20.78
2017-10-19T14:11:13.214Z,20.83
2017-10-19T14:12:23.615Z,20.76
2017-10-19T14:13:33.692Z,20.78
2017-10-19T14:14:43.785Z,20.71
2017-10-19T14:15:53.544Z,20.68
2017-10-19T14:17:03.945Z,20.75
2017-10-19T14:18:13.734Z,20.64
2017-10-19T14:19:24.144Z,20.63
2017-10-19T14:20:34.543Z,20.51
2017-10-19T14:21:44.621Z,20.44
2017-10-19T14:22:54.697Z,20.54
2017-10-19T14:24:05.096Z,20.42
2017-10-19T14:25:15.184Z,20.46
2017-10-19T14:26:25.593Z,20.41
2017-10-19T14:27:35.705Z,20.42
2017-10-19T14:28:45.794Z,20.38
2017-10-19T14:29:55.872Z,20.34
2017-10-19T14:31:06.345Z,20.27
2017-10-19T14:32:16.770Z,20.23
2017-10-19T14:33:27.187Z,20.23
2017-10-19T14:34:37.252Z,20.29
2017-10-19T14:35:48.120Z,20.27
2017-10-19T14:36:58.201Z,20.23
2017-10-19T14:38:08.273Z,20.22
2017-10-19T14:39:18.678Z,20.2
2017-10-19T14:40:29.107Z,20.3
2017-10-19T14:41:39.284Z,20.22
2017-10-19T14:42:49.689Z,20.2
2017-10-19T14:44:00.121Z,20.26
2017-10-19T14:45:09.880Z,20.2
2017-10-19T14:46:19.958Z,20.26
2017-10-19T14:47:30.100Z,20.16
2017-10-19T14:48:40.547Z,20.11
2017-10-19T14:49:50.995Z,20.11
2017-10-19T14:51:01.403Z,20.1
2017-10-19T14:52:11.145Z,19.9
2017-10-19T14:53:21.602Z,19.82
2017-10-19T14:54:31.690Z,19.85
2017-10-19T14:55:41.766Z,19.83
2017-10-19T14:56:51.858Z,19.79
2017-10-19T14:58:02.295Z,19.83
2017-10-19T14:59:12.411Z,19.85
2017-10-19T15:00:22.496Z,19.78
2017-10-19T15:01:32.925Z,19.65
2017-10-19T15:02:43.024Z,19.65
2017-10-19T15:03:53.448Z,19.61
2017-10-19T15:05:03.920Z,19.5
2017-10-19T15:06:14.037Z,19.49
2017-10-19T15:07:24.458Z,19.38
2017-10-19T15:08:34.546Z,19.28
2017-10-19T15:09:44.953Z,19.27
2017-10-19T15:10:55.421Z,19.23
2017-10-19T15:12:05.849Z,19.12
2017-10-19T15:13:16.302Z,19.12
2017-10-19T15:14:26.763Z,19.1
2017-10-19T15:15:37.228Z,18.94
2017-10-19T15:16:47.754Z,18.97
2017-10-19T15:17:58.195Z,18.82
2017-10-19T15:19:08.604Z,18.86
2017-10-19T15:20:19.029Z,18.89
2017-10-19T15:21:30.226Z,18.87
2017-10-19T15:22:40.314Z,18.82
2017-10-19T15:23:50.730Z,18.72
2017-10-19T15:25:01.151Z,18.65
2017-10-19T15:26:11.563Z,18.6
2017-10-19T15:27:21.967Z,18.56
2017-10-19T15:28:32.434Z,18.53
2017-10-19T15:29:42.883Z,18.51
2017-10-19T15:30:53.553Z,18.45
2017-10-19T15:32:03.655Z,18.44
2017-10-19T15:33:13.791Z,18.31
2017-10-19T15:34:24.255Z,18.29
2017-10-19T15:35:34.655Z,18.17
2017-10-19T15:36:45.063Z,18.35
2017-10-19T15:37:55.522Z,18.26
2017-10-19T15:39:05.257Z,18.2
2017-10-19T15:40:15.703Z,18.1
2017-10-19T15:41:25.786Z,18.08
2017-10-19T15:42:35.866Z,18.03
2017-10-19T15:43:46.287Z,18.05
2017-10-19T15:44:56.374Z,17.98